Time;durP1;ratioP1;P1;durP2;ratioP2;P2;SDS_P1;SDS_P2;PMS_P1;PMS_P2;Temp;Humidity;BMP_temperature;BMP_pressure;BME280_temperature;BME280_humidity;BME280_pressure;Samples;Min_cycle;Max_cycle;Signal;HPM_P1;HPM_P2
2023/06/14 00:01:47;;;;;;;6.97;5.20;;;;;;;;;;4923558;29;20213;-74
2023/06/14 00:04:16;;;;;;;5.90;4.87;;;;;;;;;;4931674;29;20170;-74
2023/06/14 00:06:45;;;;;;;5.20;4.70;;;;;;;;;;4920277;29;20246;-74
2023/06/14 00:09:14;;;;;;;6.93;5.50;;;;;;;;;;4924303;29;20277;-74
2023/06/14 00:11:41;;;;;;;5.97;5.23;;;;;;;;;;4923682;29;20245;-74
2023/06/14 00:14:07;;;;;;;5.90;5.40;;;;;;;;;;4918762;29;20549;-74
2023/06/14 00:16:35;;;;;;;8.67;5.27;;;;;;;;;;4919090;29;20185;-74
2023/06/14 00:19:03;;;;;;;8.27;5.20;;;;;;;;;;4924928;29;20261;-74
2023/06/14 00:21:30;;;;;;;5.80;5.30;;;;;;;;;;4918273;29;20285;-74
2023/06/14 00:23:56;;;;;;;6.20;5.00;;;;;;;;;;4922138;29;20197;-74
2023/06/14 00:26:23;;;;;;;7.60;5.13;;;;;;;;;;4922588;29;20181;-74
2023/06/14 00:28:49;;;;;;;6.10;4.60;;;;;;;;;;4920669;29;20562;-74
2023/06/14 00:31:15;;;;;;;5.87;5.10;;;;;;;;;;4927884;29;20773;-74
2023/06/14 00:33:41;;;;;;;6.93;4.90;;;;;;;;;;4926673;29;20222;-74
2023/06/14 00:36:08;;;;;;;6.00;4.90;;;;;;;;;;4923931;29;20194;-74
2023/06/14 00:38:34;;;;;;;6.07;5.27;;;;;;;;;;4917849;29;20206;-74
2023/06/14 00:41:01;;;;;;;5.60;5.03;;;;;;;;;;4932914;29;20211;-74
2023/06/14 00:43:27;;;;;;;7.90;5.27;;;;;;;;;;4927837;29;20213;-74
2023/06/14 00:45:53;;;;;;;8.30;5.20;;;;;;;;;;4929469;29;20186;-74
2023/06/14 00:48:20;;;;;;;6.70;5.20;;;;;;;;;;4923879;29;20684;-74
2023/06/14 00:50:48;;;;;;;7.87;5.30;;;;;;;;;;4924238;29;20177;-73
2023/06/14 00:53:17;;;;;;;6.83;5.17;;;;;;;;;;4923972;29;20189;-74
2023/06/14 00:55:44;;;;;;;8.17;5.37;;;;;;;;;;4926823;29;20174;-74
2023/06/14 00:58:11;;;;;;;5.63;5.13;;;;;;;;;;4916682;29;20666;-74
2023/06/14 01:00:37;;;;;;;6.23;4.47;;;;;;;;;;4925986;29;20581;-74
2023/06/14 01:03:03;;;;;;;5.77;5.13;;;;;;;;;;4921111;29;20202;-74
2023/06/14 01:05:30;;;;;;;5.80;5.20;;;;;;;;;;4927715;29;20226;-74
2023/06/14 01:08:09;;;;;;;7.93;5.00;;;;;;;;;;4928857;29;20220;-74
2023/06/14 01:10:40;;;;;;;7.20;5.60;;;;;;;;;;4919938;29;20307;-74
2023/06/14 01:13:10;;;;;;;5.03;4.57;;;;;;;;;;4925553;29;20532;-74
2023/06/14 01:15:37;;;;;;;6.30;5.10;;;;;;;;;;4921745;29;20186;-74
2023/06/14 01:18:05;;;;;;;6.53;5.27;;;;;;;;;;4927408;29;20218;-74
2023/06/14 01:20:32;;;;;;;9.70;5.30;;;;;;;;;;4932162;29;20269;-74
2023/06/14 01:22:59;;;;;;;6.27;5.00;;;;;;;;;;4920986;29;20285;-74
2023/06/14 01:25:26;;;;;;;6.20;5.60;;;;;;;;;;4924516;29;20229;-74
2023/06/14 01:27:54;;;;;;;6.47;5.07;;;;;;;;;;4931119;29;20204;-73
2023/06/14 01:30:21;;;;;;;4.90;4.50;;;;;;;;;;4931713;29;20205;-74
2023/06/14 01:32:48;;;;;;;8.53;5.10;;;;;;;;;;4924641;29;20217;-74
2023/06/14 01:35:14;;;;;;;8.20;4.83;;;;;;;;;;4926944;29;20189;-74
2023/06/14 01:37:40;;;;;;;6.03;5.10;;;;;;;;;;4922868;29;20210;-74
2023/06/14 01:40:08;;;;;;;5.43;4.90;;;;;;;;;;4920000;29;20182;-74
2023/06/14 01:42:36;;;;;;;7.30;5.17;;;;;;;;;;4919198;29;20694;-74
2023/06/14 01:45:03;;;;;;;6.70;5.00;;;;;;;;;;4928962;29;20221;-74
2023/06/14 01:47:30;;;;;;;5.70;5.20;;;;;;;;;;4923675;29;20178;-74
2023/06/14 01:49:56;;;;;;;5.93;4.93;;;;;;;;;;4925182;29;20237;-74
2023/06/14 01:52:24;;;;;;;6.20;4.93;;;;;;;;;;4926301;29;20198;-74
2023/06/14 01:54:50;;;;;;;6.47;5.03;;;;;;;;;;4926111;29;20190;-74
2023/06/14 01:57:16;;;;;;;6.20;5.10;;;;;;;;;;4922803;29;20202;-74
2023/06/14 01:59:48;;;;;;;6.57;5.23;;;;;;;;;;4924808;29;20720;-74
2023/06/14 02:02:15;;;;;;;5.47;4.80;;;;;;;;;;4925618;29;20211;-74
2023/06/14 02:04:41;;;;;;;5.47;4.97;;;;;;;;;;4919779;29;20604;-74
2023/06/14 02:07:10;;;;;;;7.17;4.90;;;;;;;;;;4922808;29;20290;-74
2023/06/14 02:09:36;;;;;;;5.80;4.87;;;;;;;;;;4922896;29;20190;-74
2023/06/14 02:12:02;;;;;;;6.80;4.90;;;;;;;;;;4931270;29;20205;-74
2023/06/14 02:14:29;;;;;;;6.00;5.40;;;;;;;;;;4935358;29;20177;-74
2023/06/14 02:16:55;;;;;;;7.67;4.97;;;;;;;;;;4925579;29;20210;-74
2023/06/14 02:19:21;;;;;;;8.07;5.80;;;;;;;;;;4928507;29;20193;-74
2023/06/14 02:21:48;;;;;;;6.20;5.60;;;;;;;;;;4924177;29;20261;-74
2023/06/14 02:24:14;;;;;;;5.87;5.10;;;;;;;;;;4936487;29;20189;-74
2023/06/14 02:26:43;;;;;;;7.60;5.20;;;;;;;;;;4935407;29;20253;-74
2023/06/14 02:29:14;;;;;;;5.63;4.80;;;;;;;;;;4918779;29;20181;-74
2023/06/14 02:31:41;;;;;;;6.10;5.13;;;;;;;;;;4935724;29;20232;-73
2023/06/14 02:34:10;;;;;;;6.80;5.30;;;;;;;;;;4924104;29;20190;-74
2023/06/14 02:36:41;;;;;;;5.83;5.17;;;;;;;;;;4927115;29;20186;-74
2023/06/14 02:39:09;;;;;;;6.30;5.20;;;;;;;;;;4917473;29;20671;-73
2023/06/14 02:41:35;;;;;;;7.20;5.37;;;;;;;;;;4915692;29;20199;-74
2023/06/14 02:44:01;;;;;;;8.17;5.60;;;;;;;;;;4917549;29;20178;-74
2023/06/14 02:46:29;;;;;;;5.67;5.07;;;;;;;;;;4929060;29;20232;-74
2023/06/14 02:48:55;;;;;;;5.50;4.83;;;;;;;;;;4928010;29;20235;-74
2023/06/14 02:51:21;;;;;;;6.17;5.20;;;;;;;;;;4926008;29;20297;-73
2023/06/14 02:53:47;;;;;;;6.33;5.30;;;;;;;;;;4920417;29;20191;-73
2023/06/14 02:56:13;;;;;;;7.20;5.40;;;;;;;;;;4926860;29;20182;-74
2023/06/14 02:58:40;;;;;;;11.40;5.47;;;;;;;;;;4933382;29;20586;-74
2023/06/14 03:01:07;;;;;;;7.80;5.20;;;;;;;;;;4916420;29;20219;-73
2023/06/14 03:03:34;;;;;;;5.80;5.20;;;;;;;;;;4916088;29;20253;-74
2023/06/14 03:06:03;;;;;;;5.93;5.20;;;;;;;;;;4906109;29;20269;-73
2023/06/14 03:08:38;;;;;;;6.20;5.00;;;;;;;;;;4934325;29;20190;-73
2023/06/14 03:11:05;;;;;;;4.93;4.43;;;;;;;;;;4934152;29;20212;-74
2023/06/14 03:13:38;;;;;;;7.60;4.80;;;;;;;;;;4930475;29;20681;-74
2023/06/14 03:16:07;;;;;;;6.20;4.67;;;;;;;;;;4922152;29;20194;-74
2023/06/14 03:18:35;;;;;;;7.07;5.10;;;;;;;;;;4931954;29;20265;-73
2023/06/14 03:21:03;;;;;;;5.90;5.00;;;;;;;;;;4933788;29;20284;-74
2023/06/14 03:23:31;;;;;;;5.43;4.80;;;;;;;;;;4933913;29;20181;-74
2023/06/14 03:25:57;;;;;;;7.43;5.20;;;;;;;;;;4925854;29;20199;-74
2023/06/14 03:28:24;;;;;;;5.50;4.90;;;;;;;;;;4928031;29;20305;-74
2023/06/14 03:30:51;;;;;;;5.00;4.50;;;;;;;;;;4932709;29;20254;-74
2023/06/14 03:33:17;;;;;;;6.40;4.67;;;;;;;;;;4933590;29;20200;-74
2023/06/14 03:35:44;;;;;;;9.23;4.93;;;;;;;;;;4933394;29;20194;-74
2023/06/14 03:38:11;;;;;;;5.53;5.00;;;;;;;;;;4933727;29;20210;-74
2023/06/14 03:40:37;;;;;;;7.23;5.50;;;;;;;;;;4933961;29;20204;-73
2023/06/14 03:43:05;;;;;;;5.93;5.27;;;;;;;;;;4934862;29;20178;-74
2023/06/14 03:45:32;;;;;;;7.40;5.30;;;;;;;;;;4931580;29;20182;-74
2023/06/14 03:48:00;;;;;;;6.40;5.50;;;;;;;;;;4925024;29;20191;-74
2023/06/14 03:50:27;;;;;;;6.13;5.13;;;;;;;;;;4916898;29;20666;-74
2023/06/14 03:52:53;;;;;;;5.83;5.30;;;;;;;;;;4917406;29;20700;-74
2023/06/14 03:55:20;;;;;;;6.10;5.50;;;;;;;;;;4924929;29;20664;-73
2023/06/14 03:57:47;;;;;;;8.40;5.83;;;;;;;;;;4931957;29;20221;-74
2023/06/14 04:00:17;;;;;;;6.27;5.30;;;;;;;;;;4925077;29;20193;-74
2023/06/14 04:02:44;;;;;;;7.10;5.67;;;;;;;;;;4898443;29;20256;-74
2023/06/14 04:05:11;;;;;;;6.83;5.53;;;;;;;;;;4922859;29;20574;-73
2023/06/14 04:07:44;;;;;;;8.17;5.80;;;;;;;;;;4913679;29;20639;-73
2023/06/14 04:10:11;;;;;;;10.17;6.17;;;;;;;;;;4914188;29;20988;-73
2023/06/14 04:12:38;;;;;;;7.80;6.30;;;;;;;;;;4914041;29;20288;-74
2023/06/14 04:15:06;;;;;;;8.97;5.27;;;;;;;;;;4920811;29;20650;-74
2023/06/14 04:17:32;;;;;;;7.00;5.90;;;;;;;;;;4932770;29;20260;-74
2023/06/14 04:20:07;;;;;;;10.17;7.87;;;;;;;;;;4933100;29;20182;-74
2023/06/14 04:22:33;;;;;;;8.30;6.20;;;;;;;;;;4933897;29;20697;-73
2023/06/14 04:24:59;;;;;;;6.60;5.80;;;;;;;;;;4925448;29;20659;-74
2023/06/14 04:27:28;;;;;;;10.53;5.80;;;;;;;;;;4922731;29;20194;-74
2023/06/14 04:29:59;;;;;;;6.20;5.27;;;;;;;;;;4932654;29;20211;-74
2023/06/14 04:32:38;;;;;;;7.20;5.40;;;;;;;;;;4931718;29;20261;-73
2023/06/14 04:35:05;;;;;;;8.87;5.40;;;;;;;;;;4931560;29;20201;-73
2023/06/14 04:37:33;;;;;;;6.10;5.50;;;;;;;;;;4931793;29;20704;-73
2023/06/14 04:40:00;;;;;;;6.60;5.40;;;;;;;;;;4931936;29;20177;-74
2023/06/14 04:42:30;;;;;;;6.57;5.23;;;;;;;;;;4915918;29;20226;-74
2023/06/14 04:44:57;;;;;;;7.30;5.90;;;;;;;;;;4931437;29;20683;-74
2023/06/14 04:47:29;;;;;;;6.87;5.43;;;;;;;;;;4931439;29;20273;-74
2023/06/14 04:49:57;;;;;;;6.63;5.30;;;;;;;;;;4931866;29;20224;-74
2023/06/14 04:52:26;;;;;;;6.60;5.10;;;;;;;;;;4931782;29;20233;-73
2023/06/14 04:54:56;;;;;;;7.70;5.70;;;;;;;;;;4926532;29;20644;-74
2023/06/14 04:57:25;;;;;;;6.90;5.23;;;;;;;;;;4912692;29;20281;-73
2023/06/14 04:59:57;;;;;;;6.57;5.27;;;;;;;;;;4931158;29;20269;-73
2023/06/14 05:02:25;;;;;;;10.00;5.63;;;;;;;;;;4931475;29;20201;-73
2023/06/14 05:04:53;;;;;;;6.60;5.43;;;;;;;;;;4931612;29;20651;-74
2023/06/14 05:07:19;;;;;;;6.77;5.50;;;;;;;;;;4931474;29;20273;-73
2023/06/14 05:09:47;;;;;;;13.57;5.80;;;;;;;;;;4931511;29;20194;-73
2023/06/14 05:12:17;;;;;;;7.53;5.70;;;;;;;;;;4901212;29;20236;-74
2023/06/14 05:14:43;;;;;;;7.97;5.50;;;;;;;;;;4914531;29;20204;-73
2023/06/14 05:17:10;;;;;;;5.80;5.30;;;;;;;;;;4935705;29;20778;-73
2023/06/14 05:19:36;;;;;;;7.63;5.87;;;;;;;;;;4917282;29;20835;-73
2023/06/14 05:22:03;;;;;;;6.43;5.80;;;;;;;;;;4896875;29;20214;-73
2023/06/14 05:24:32;;;;;;;8.07;5.70;;;;;;;;;;4915153;29;20245;-74
2023/06/14 05:26:59;;;;;;;9.47;5.80;;;;;;;;;;4932129;29;20617;-74
2023/06/14 05:29:25;;;;;;;7.80;5.50;;;;;;;;;;4932498;29;20186;-73
2023/06/14 05:31:52;;;;;;;6.80;5.47;;;;;;;;;;4882754;29;1075563;-74
2023/06/14 05:34:18;;;;;;;9.53;5.87;;;;;;;;;;4917062;29;20273;-74
2023/06/14 05:36:44;;;;;;;6.03;5.27;;;;;;;;;;4927065;29;20189;-76
2023/06/14 05:39:11;;;;;;;7.00;5.33;;;;;;;;;;4926064;29;20269;-75
2023/06/14 05:41:37;;;;;;;8.17;5.30;;;;;;;;;;4922060;29;20210;-78
2023/06/14 05:44:03;;;;;;;9.13;5.47;;;;;;;;;;4931436;29;20228;-78
2023/06/14 05:46:29;;;;;;;9.00;5.60;;;;;;;;;;4915876;29;20190;-77
2023/06/14 05:48:55;;;;;;;6.97;5.47;;;;;;;;;;4934133;29;20610;-75
2023/06/14 05:51:24;;;;;;;10.27;5.50;;;;;;;;;;4934183;29;20262;-74
2023/06/14 05:53:51;;;;;;;6.67;5.27;;;;;;;;;;4934206;29;20177;-74
2023/06/14 05:56:18;;;;;;;8.90;5.43;;;;;;;;;;4931369;29;20372;-77
2023/06/14 05:58:44;;;;;;;7.90;5.20;;;;;;;;;;4936073;29;20360;-77
2023/06/14 06:01:11;;;;;;;6.53;5.23;;;;;;;;;;4936458;29;20731;-77
2023/06/14 06:03:37;;;;;;;8.73;5.37;;;;;;;;;;4937310;29;20182;-76
2023/06/14 06:06:03;;;;;;;7.30;5.60;;;;;;;;;;4932608;29;20189;-74
2023/06/14 06:08:31;;;;;;;7.60;5.37;;;;;;;;;;4936474;29;20186;-75
2023/06/14 06:10:57;;;;;;;7.17;5.43;;;;;;;;;;4936352;29;20186;-74
2023/06/14 06:13:23;;;;;;;6.33;5.50;;;;;;;;;;4930819;29;20556;-74
2023/06/14 06:15:50;;;;;;;7.80;5.83;;;;;;;;;;4930989;29;20241;-74
2023/06/14 06:18:16;;;;;;;9.43;5.30;;;;;;;;;;4935490;29;20217;-74
2023/06/14 06:20:43;;;;;;;9.10;5.80;;;;;;;;;;4917650;29;20215;-74
2023/06/14 06:23:14;;;;;;;6.63;5.70;;;;;;;;;;4918399;29;20189;-75
2023/06/14 06:25:40;;;;;;;7.80;5.60;;;;;;;;;;4934479;29;20664;-75
2023/06/14 06:28:06;;;;;;;7.43;5.27;;;;;;;;;;4936473;29;20729;-75
2023/06/14 06:30:32;;;;;;;7.37;5.50;;;;;;;;;;4936144;29;20209;-75
2023/06/14 06:32:59;;;;;;;6.83;5.20;;;;;;;;;;4917921;29;20226;-75
2023/06/14 06:35:25;;;;;;;6.63;5.60;;;;;;;;;;4928482;29;20209;-75
2023/06/14 06:37:51;;;;;;;6.57;5.20;;;;;;;;;;4935449;29;20692;-74
2023/06/14 06:40:18;;;;;;;7.47;5.80;;;;;;;;;;4927007;29;20716;-76
2023/06/14 06:42:44;;;;;;;7.93;5.67;;;;;;;;;;4917085;29;20205;-75
2023/06/14 06:45:12;;;;;;;9.03;5.30;;;;;;;;;;4924450;29;20197;-75
2023/06/14 06:47:38;;;;;;;6.40;4.97;;;;;;;;;;4931843;29;20222;-75
2023/06/14 06:50:06;;;;;;;5.90;5.10;;;;;;;;;;4926380;29;20185;-75
2023/06/14 06:52:32;;;;;;;5.93;5.20;;;;;;;;;;4935630;29;20273;-74
2023/06/14 06:54:58;;;;;;;9.47;5.60;;;;;;;;;;4934059;29;20233;-75
2023/06/14 06:57:24;;;;;;;7.73;5.50;;;;;;;;;;4932855;29;20214;-75
2023/06/14 06:59:50;;;;;;;6.53;5.03;;;;;;;;;;4932980;29;20182;-74
2023/06/14 07:02:17;;;;;;;6.70;4.97;;;;;;;;;;4915586;29;20289;-76
2023/06/14 07:04:43;;;;;;;6.53;5.00;;;;;;;;;;4933198;29;20204;-74
2023/06/14 07:07:09;;;;;;;5.27;4.77;;;;;;;;;;4934445;29;20194;-74
2023/06/14 07:09:36;;;;;;;9.50;5.40;;;;;;;;;;4934660;29;20201;-75
2023/06/14 07:12:02;;;;;;;8.53;5.00;;;;;;;;;;4935888;29;20627;-75
2023/06/14 07:14:30;;;;;;;5.93;5.10;;;;;;;;;;4935643;29;20565;-74
2023/06/14 07:16:56;;;;;;;5.53;5.00;;;;;;;;;;4934951;29;20182;-74
2023/06/14 07:19:22;;;;;;;7.50;5.20;;;;;;;;;;4934227;29;20182;-74
2023/06/14 07:21:48;;;;;;;12.53;4.90;;;;;;;;;;4935032;29;20209;-76
2023/06/14 07:24:15;;;;;;;5.83;5.20;;;;;;;;;;4934270;29;20214;-75
2023/06/14 07:26:41;;;;;;;9.63;5.57;;;;;;;;;;4933779;29;20204;-74
2023/06/14 07:29:07;;;;;;;11.23;5.40;;;;;;;;;;4934171;29;20294;-74
2023/06/14 07:31:33;;;;;;;5.97;5.20;;;;;;;;;;4935169;29;20209;-74
2023/06/14 07:33:59;;;;;;;5.40;4.90;;;;;;;;;;4935153;29;20260;-74
2023/06/14 07:36:25;;;;;;;6.67;4.77;;;;;;;;;;4930932;29;20763;-74
2023/06/14 07:38:51;;;;;;;5.57;4.77;;;;;;;;;;4935055;29;20218;-74
2023/06/14 07:41:17;;;;;;;5.47;4.80;;;;;;;;;;4933895;29;20209;-74
2023/06/14 07:43:43;;;;;;;7.47;4.90;;;;;;;;;;4935346;29;20184;-74
2023/06/14 07:46:10;;;;;;;5.97;4.83;;;;;;;;;;4934298;29;20569;-74
2023/06/14 07:48:36;;;;;;;6.07;5.07;;;;;;;;;;4934786;29;20268;-74
2023/06/14 07:51:02;;;;;;;6.13;5.00;;;;;;;;;;4935327;29;20582;-74
2023/06/14 07:53:30;;;;;;;6.20;5.60;;;;;;;;;;4934888;29;20686;-74
2023/06/14 07:55:57;;;;;;;7.23;4.63;;;;;;;;;;4934403;29;20197;-73
2023/06/14 07:58:23;;;;;;;6.13;4.73;;;;;;;;;;4917625;29;20223;-74
2023/06/14 08:00:49;;;;;;;8.13;4.73;;;;;;;;;;4934753;29;20265;-74
2023/06/14 08:03:15;;;;;;;6.70;4.53;;;;;;;;;;4933768;29;20182;-76
2023/06/14 08:05:41;;;;;;;8.27;5.30;;;;;;;;;;4934403;29;20229;-75
2023/06/14 08:08:08;;;;;;;7.80;5.20;;;;;;;;;;4934481;29;20226;-76
2023/06/14 08:10:34;;;;;;;5.37;4.87;;;;;;;;;;4933399;29;20186;-76
2023/06/14 08:13:00;;;;;;;6.20;4.67;;;;;;;;;;4934852;29;20700;-76
2023/06/14 08:15:26;;;;;;;5.97;4.90;;;;;;;;;;4934169;29;20178;-76
2023/06/14 08:17:52;;;;;;;5.47;4.87;;;;;;;;;;4922618;29;20233;-74
2023/06/14 08:20:18;;;;;;;7.40;5.10;;;;;;;;;;4934748;29;20181;-75
2023/06/14 08:22:46;;;;;;;7.57;5.20;;;;;;;;;;4934456;29;20732;-74
2023/06/14 08:25:12;;;;;;;7.07;5.17;;;;;;;;;;4933419;29;20182;-74
2023/06/14 08:27:38;;;;;;;7.00;4.70;;;;;;;;;;4933691;29;20198;-75
2023/06/14 08:30:07;;;;;;;5.47;4.47;;;;;;;;;;4934307;29;20571;-75
2023/06/14 08:32:33;;;;;;;6.90;4.83;;;;;;;;;;4933076;29;20371;-74
2023/06/14 08:34:59;;;;;;;5.43;4.93;;;;;;;;;;4934454;29;20182;-74
2023/06/14 08:37:26;;;;;;;5.97;4.50;;;;;;;;;;4933460;29;20744;-74
2023/06/14 08:39:52;;;;;;;7.33;4.80;;;;;;;;;;4933473;29;20256;-74
2023/06/14 08:42:19;;;;;;;6.00;4.70;;;;;;;;;;4933964;29;20293;-75
2023/06/14 08:44:45;;;;;;;8.83;4.60;;;;;;;;;;4934510;29;20182;-74
2023/06/14 08:47:12;;;;;;;5.67;4.50;;;;;;;;;;4933918;29;20178;-75
2023/06/14 08:49:42;;;;;;;5.07;4.33;;;;;;;;;;4932473;29;20288;-74
2023/06/14 08:52:14;;;;;;;5.57;4.50;;;;;;;;;;4933893;29;20216;-74
2023/06/14 08:54:43;;;;;;;7.07;4.30;;;;;;;;;;4933820;29;20250;-74
2023/06/14 08:57:15;;;;;;;5.43;4.53;;;;;;;;;;4933239;29;20264;-74
2023/06/14 08:59:53;;;;;;;4.73;4.23;;;;;;;;;;4933916;29;20188;-73
2023/06/14 09:02:19;;;;;;;10.47;4.80;;;;;;;;;;4933471;29;20209;-74
2023/06/14 09:04:45;;;;;;;4.53;4.00;;;;;;;;;;4933016;29;20261;-74
2023/06/14 09:07:12;;;;;;;5.53;4.20;;;;;;;;;;4932185;29;20682;-75
2023/06/14 09:09:40;;;;;;;5.07;3.80;;;;;;;;;;4933980;29;20177;-74
2023/06/14 09:12:10;;;;;;;5.43;3.90;;;;;;;;;;4933399;29;20689;-75
2023/06/14 09:14:38;;;;;;;4.93;3.90;;;;;;;;;;4933978;29;20562;-76
2023/06/14 09:17:05;;;;;;;5.00;3.90;;;;;;;;;;4933770;29;20178;-74
2023/06/14 09:19:31;;;;;;;5.80;4.57;;;;;;;;;;4932815;29;20276;-74
2023/06/14 09:21:57;;;;;;;5.20;4.23;;;;;;;;;;4933078;29;20285;-74
2023/06/14 09:24:27;;;;;;;4.20;3.80;;;;;;;;;;4932918;29;20230;-74
2023/06/14 09:26:53;;;;;;;5.20;4.27;;;;;;;;;;4933689;29;20177;-74
2023/06/14 09:29:20;;;;;;;4.47;4.07;;;;;;;;;;4930527;29;20218;-74
2023/06/14 09:31:49;;;;;;;5.57;4.43;;;;;;;;;;4937225;29;20686;-74
2023/06/14 09:34:19;;;;;;;4.60;3.70;;;;;;;;;;4936435;29;20178;-75
2023/06/14 09:36:45;;;;;;;6.33;3.70;;;;;;;;;;4937002;29;20175;-74
2023/06/14 09:39:17;;;;;;;5.40;3.90;;;;;;;;;;4936696;29;20697;-75
2023/06/14 09:41:43;;;;;;;4.60;3.90;;;;;;;;;;4936023;29;20202;-74
2023/06/14 09:44:10;;;;;;;4.90;4.07;;;;;;;;;;4937405;29;20730;-74
2023/06/14 09:46:36;;;;;;;4.57;3.83;;;;;;;;;;4927495;29;20194;-74
2023/06/14 09:49:03;;;;;;;7.93;4.13;;;;;;;;;;4936379;29;20190;-74
2023/06/14 09:51:32;;;;;;;5.37;4.00;;;;;;;;;;4937013;29;20217;-75
2023/06/14 09:54:06;;;;;;;4.40;4.00;;;;;;;;;;4937048;29;20269;-73
2023/06/14 09:56:35;;;;;;;5.47;4.00;;;;;;;;;;4930138;29;20186;-73
2023/06/14 09:59:05;;;;;;;4.20;3.80;;;;;;;;;;4936817;29;20348;-73
2023/06/14 10:01:32;;;;;;;6.10;4.00;;;;;;;;;;4936929;29;20712;-76
2023/06/14 10:04:01;;;;;;;4.87;3.77;;;;;;;;;;4929262;29;20195;-73
2023/06/14 10:06:29;;;;;;;4.00;3.60;;;;;;;;;;4926820;29;20190;-74
2023/06/14 10:08:57;;;;;;;4.20;3.80;;;;;;;;;;4934574;29;20277;-73
2023/06/14 10:11:24;;;;;;;4.00;3.60;;;;;;;;;;4935178;29;20345;-74
2023/06/14 10:13:50;;;;;;;4.20;3.80;;;;;;;;;;4934813;29;20249;-75
2023/06/14 10:16:19;;;;;;;6.07;3.83;;;;;;;;;;4928142;29;20607;-74
2023/06/14 10:18:50;;;;;;;5.30;3.77;;;;;;;;;;4935219;29;20661;-73
2023/06/14 10:21:22;;;;;;;9.60;4.40;;;;;;;;;;4934458;29;20206;-74
2023/06/14 10:23:49;;;;;;;5.60;3.70;;;;;;;;;;4934093;29;20201;-75
2023/06/14 10:26:21;;;;;;;4.83;3.73;;;;;;;;;;4935205;29;20170;-74
2023/06/14 10:29:08;;;;;;;4.30;3.43;;;;;;;;;;4936494;29;20842;-74
2023/06/14 10:31:44;;;;;;;5.13;3.27;;;;;;;;;;4935847;29;20221;-74
2023/06/14 10:34:11;;;;;;;4.63;3.63;;;;;;;;;;4936371;29;20181;-75
2023/06/14 10:36:38;;;;;;;6.30;4.00;;;;;;;;;;4935793;29;20771;-74
2023/06/14 10:39:08;;;;;;;4.50;3.63;;;;;;;;;;4936189;29;20217;-73
2023/06/14 10:41:36;;;;;;;5.27;3.60;;;;;;;;;;4935514;29;20774;-74
2023/06/14 10:44:14;;;;;;;7.03;3.70;;;;;;;;;;4936176;29;20178;-74
2023/06/14 10:46:41;;;;;;;5.60;3.50;;;;;;;;;;4935750;29;20236;-74
2023/06/14 10:49:09;;;;;;;6.27;4.20;;;;;;;;;;4936240;29;20186;-74
2023/06/14 10:51:48;;;;;;;4.70;3.83;;;;;;;;;;4935486;29;20214;-74
2023/06/14 10:54:14;;;;;;;4.73;3.87;;;;;;;;;;4936397;29;20186;-74
2023/06/14 10:56:47;;;;;;;5.33;3.63;;;;;;;;;;4935525;29;20181;-74
2023/06/14 10:59:13;;;;;;;5.43;4.30;;;;;;;;;;4936173;29;20217;-76
2023/06/14 11:01:43;;;;;;;5.07;3.57;;;;;;;;;;4935263;29;20217;-75
2023/06/14 11:04:12;;;;;;;5.17;4.20;;;;;;;;;;4935799;29;20178;-74
2023/06/14 11:06:58;;;;;;;5.90;3.80;;;;;;;;;;4935150;29;20223;-75
2023/06/14 11:09:36;;;;;;;4.60;3.90;;;;;;;;;;4935751;29;20194;-75
2023/06/14 11:12:02;;;;;;;5.33;3.73;;;;;;;;;;4930779;29;20204;-75
2023/06/14 11:14:31;;;;;;;4.07;3.60;;;;;;;;;;4934293;29;20195;-74
2023/06/14 11:16:57;;;;;;;5.33;3.50;;;;;;;;;;4934240;29;20208;-74
2023/06/14 11:19:23;;;;;;;4.17;3.77;;;;;;;;;;4935534;29;20184;-74
2023/06/14 11:21:50;;;;;;;4.40;4.00;;;;;;;;;;4931320;29;20650;-75
2023/06/14 11:24:17;;;;;;;8.27;3.60;;;;;;;;;;4934201;29;20552;-75
2023/06/14 11:26:43;;;;;;;4.60;3.70;;;;;;;;;;4934995;29;20189;-74
2023/06/14 11:29:10;;;;;;;6.10;3.80;;;;;;;;;;4935357;29;20219;-74
2023/06/14 11:31:37;;;;;;;4.70;3.90;;;;;;;;;;4935138;29;20225;-75
2023/06/14 11:34:03;;;;;;;4.20;3.67;;;;;;;;;;4934885;29;20285;-74
2023/06/14 11:36:31;;;;;;;4.07;3.40;;;;;;;;;;4934213;29;20275;-74
2023/06/14 11:39:05;;;;;;;5.37;3.70;;;;;;;;;;4930976;29;20220;-75
2023/06/14 11:41:36;;;;;;;3.50;3.20;;;;;;;;;;4929809;29;20210;-74
2023/06/14 11:44:03;;;;;;;7.13;4.03;;;;;;;;;;4934937;29;20682;-76
2023/06/14 11:46:29;;;;;;;5.70;3.90;;;;;;;;;;4933579;29;20269;-74
2023/06/14 11:48:56;;;;;;;4.83;4.07;;;;;;;;;;4935031;29;20180;-74
2023/06/14 11:51:22;;;;;;;4.07;3.67;;;;;;;;;;4933628;29;20202;-74
2023/06/14 11:53:48;;;;;;;4.37;3.70;;;;;;;;;;4934851;29;20190;-74
2023/06/14 11:56:15;;;;;;;6.97;3.30;;;;;;;;;;4933396;29;20193;-75
2023/06/14 11:58:43;;;;;;;3.60;3.30;;;;;;;;;;4934883;29;20871;-74
2023/06/14 12:01:09;;;;;;;5.80;3.50;;;;;;;;;;4934370;29;20218;-74
2023/06/14 12:03:35;;;;;;;4.57;3.40;;;;;;;;;;4934647;29;20210;-75
2023/06/14 12:06:02;;;;;;;4.80;3.53;;;;;;;;;;4934585;29;20187;-75
2023/06/14 12:08:41;;;;;;;3.50;3.20;;;;;;;;;;4934783;29;20189;-75
2023/06/14 12:11:08;;;;;;;12.10;3.10;;;;;;;;;;4934148;29;20229;-75
2023/06/14 12:13:35;;;;;;;3.73;3.40;;;;;;;;;;4934298;29;20189;-75
2023/06/14 12:16:02;;;;;;;4.33;3.27;;;;;;;;;;4933169;29;20226;-74
2023/06/14 12:18:35;;;;;;;5.13;3.33;;;;;;;;;;4931659;29;20251;-75
2023/06/14 12:21:03;;;;;;;4.90;3.30;;;;;;;;;;4934566;29;20715;-75
2023/06/14 12:23:48;;;;;;;3.80;3.00;;;;;;;;;;4933945;29;20194;-75
2023/06/14 12:26:15;;;;;;;4.83;3.30;;;;;;;;;;4934048;29;20192;-74
2023/06/14 12:28:43;;;;;;;4.13;3.40;;;;;;;;;;4934456;29;20299;-75
2023/06/14 12:31:09;;;;;;;3.37;3.07;;;;;;;;;;4934462;29;20213;-75
2023/06/14 12:33:35;;;;;;;3.67;3.30;;;;;;;;;;4933851;29;20231;-75
2023/06/14 12:36:03;;;;;;;3.33;3.10;;;;;;;;;;4932348;29;20543;-75
2023/06/14 12:38:29;;;;;;;4.50;3.23;;;;;;;;;;4932920;29;20221;-75
2023/06/14 12:40:57;;;;;;;3.60;3.30;;;;;;;;;;4933000;29;20559;-75
2023/06/14 12:43:23;;;;;;;3.77;3.10;;;;;;;;;;4934409;29;20265;-74
2023/06/14 12:45:49;;;;;;;4.10;3.20;;;;;;;;;;4933060;29;20195;-78
2023/06/14 12:48:16;;;;;;;3.37;3.07;;;;;;;;;;4933432;29;20329;-74
2023/06/14 12:50:42;;;;;;;3.60;3.30;;;;;;;;;;4933993;29;20191;-75
2023/06/14 12:53:08;;;;;;;4.73;3.40;;;;;;;;;;4934048;29;20189;-75
2023/06/14 12:55:35;;;;;;;3.50;3.20;;;;;;;;;;4933797;29;20544;-75
2023/06/14 12:58:01;;;;;;;7.03;3.53;;;;;;;;;;4933625;29;20212;-75
2023/06/14 13:00:27;;;;;;;3.93;3.63;;;;;;;;;;4934150;29;20263;-76
2023/06/14 13:02:54;;;;;;;3.60;3.30;;;;;;;;;;4936654;29;20296;-76
2023/06/14 13:05:20;;;;;;;3.57;3.27;;;;;;;;;;4938789;29;20193;-74
2023/06/14 13:07:46;;;;;;;4.73;3.33;;;;;;;;;;4936929;29;20231;-75
2023/06/14 13:10:12;;;;;;;3.43;3.13;;;;;;;;;;4939584;29;20586;-75
2023/06/14 13:12:38;;;;;;;4.30;3.20;;;;;;;;;;4937006;29;20252;-75
2023/06/14 13:15:05;;;;;;;3.43;3.20;;;;;;;;;;4937151;29;20183;-75
2023/06/14 13:17:33;;;;;;;3.60;3.30;;;;;;;;;;4937401;29;20209;-75
2023/06/14 13:19:59;;;;;;;4.17;3.73;;;;;;;;;;4937853;29;20266;-75
2023/06/14 13:22:25;;;;;;;4.33;3.20;;;;;;;;;;4937226;29;20214;-75
2023/06/14 13:24:52;;;;;;;7.43;3.50;;;;;;;;;;4937717;29;20217;-75
2023/06/14 13:27:18;;;;;;;3.40;3.10;;;;;;;;;;4937011;29;20250;-75
2023/06/14 13:29:44;;;;;;;4.27;3.57;;;;;;;;;;4936246;29;20188;-76
2023/06/14 13:32:10;;;;;;;3.90;3.50;;;;;;;;;;4936982;29;20216;-77
2023/06/14 13:34:36;;;;;;;3.90;3.50;;;;;;;;;;4937624;29;20243;-76
2023/06/14 13:37:02;;;;;;;4.27;3.67;;;;;;;;;;4937381;29;20192;-77
2023/06/14 13:39:28;;;;;;;5.30;3.73;;;;;;;;;;4937440;29;20338;-76
2023/06/14 13:41:54;;;;;;;5.30;3.50;;;;;;;;;;4936651;29;20205;-75
2023/06/14 13:44:21;;;;;;;4.70;3.60;;;;;;;;;;4937240;29;20595;-75
2023/06/14 13:46:47;;;;;;;3.93;3.60;;;;;;;;;;4937019;29;20260;-75
2023/06/14 13:49:13;;;;;;;5.00;3.73;;;;;;;;;;4937468;29;20324;-74
2023/06/14 13:51:39;;;;;;;4.70;3.87;;;;;;;;;;4936762;29;20217;-74
2023/06/14 13:54:05;;;;;;;5.00;3.93;;;;;;;;;;4937185;29;20190;-75
2023/06/14 13:56:32;;;;;;;4.33;3.63;;;;;;;;;;4936296;29;20188;-75
2023/06/14 13:58:59;;;;;;;4.70;4.10;;;;;;;;;;4937130;29;20224;-75
2023/06/14 14:01:26;;;;;;;5.60;3.67;;;;;;;;;;4936301;29;20212;-76
2023/06/14 14:03:52;;;;;;;3.70;3.40;;;;;;;;;;4937010;29;20187;-75
2023/06/14 14:06:18;;;;;;;6.00;3.30;;;;;;;;;;4933779;29;20193;-76
2023/06/14 14:08:45;;;;;;;3.47;3.00;;;;;;;;;;4936574;29;20213;-75
2023/06/14 14:11:12;;;;;;;4.53;3.57;;;;;;;;;;4936897;29;20228;-75
2023/06/14 14:13:39;;;;;;;4.40;3.40;;;;;;;;;;4936179;29;20195;-76
2023/06/14 14:16:06;;;;;;;4.83;3.50;;;;;;;;;;4936597;29;20181;-76
2023/06/14 14:18:32;;;;;;;3.77;3.13;;;;;;;;;;4919849;29;20214;-75
2023/06/14 14:21:00;;;;;;;5.03;3.60;;;;;;;;;;4936483;29;20197;-75
2023/06/14 14:23:26;;;;;;;4.77;3.70;;;;;;;;;;4936581;29;20170;-75
2023/06/14 14:25:52;;;;;;;3.93;3.43;;;;;;;;;;4935127;29;20188;-75
2023/06/14 14:28:20;;;;;;;4.20;3.80;;;;;;;;;;4936279;29;20202;-75
2023/06/14 14:30:47;;;;;;;4.50;3.60;;;;;;;;;;4936297;29;20273;-76
2023/06/14 14:33:15;;;;;;;4.40;3.90;;;;;;;;;;4936317;29;20194;-75
2023/06/14 14:35:42;;;;;;;5.03;3.70;;;;;;;;;;4936104;29;20199;-75
2023/06/14 14:38:09;;;;;;;4.30;3.90;;;;;;;;;;4936069;29;20218;-75
2023/06/14 14:40:35;;;;;;;5.80;3.50;;;;;;;;;;4936279;29;20180;-75
2023/06/14 14:43:01;;;;;;;3.77;3.47;;;;;;;;;;4936163;29;20984;-75
2023/06/14 14:45:27;;;;;;;5.87;3.50;;;;;;;;;;4935771;29;20181;-75